Time;durP1;ratioP1;P1;durP2;ratioP2;P2;SDS_P1;SDS_P2;PMS_P1;PMS_P2;Temp;Humidity;BMP_temperature;BMP_pressure;BME280_temperature;BME280_humidity;BME280_pressure;Samples;Min_cycle;Max_cycle;Signal;HPM_P1;HPM_P2
2022/08/05 00:02:17;;;;;;;4.37;3.20;;;31.00;45.70;;;31.28;32.83;98169.16;5034237;27;123738;-73
2022/08/05 00:04:44;;;;;;;4.13;3.13;;;30.90;45.80;;;31.25;33.49;98170.91;5036471;27;124000;-71
2022/08/05 00:07:11;;;;;;;3.90;3.10;;;30.90;45.90;;;31.22;32.90;98169.00;5048364;27;114779;-72
2022/08/05 00:09:37;;;;;;;4.63;3.07;;;30.90;46.10;;;31.18;32.94;98168.31;5035478;27;114497;-72
2022/08/05 00:12:04;;;;;;;5.73;3.90;;;30.80;46.00;;;31.10;33.47;98159.22;5046538;27;123201;-72
2022/08/05 00:14:31;;;;;;;4.53;2.97;;;30.80;46.20;;;31.01;33.54;98168.53;5048757;27;123399;-72
2022/08/05 00:16:58;;;;;;;3.93;2.87;;;30.70;46.30;;;30.96;33.67;98171.22;5030797;27;115224;-72
2022/08/05 00:19:25;;;;;;;4.70;3.30;;;30.60;46.40;;;30.91;33.86;98175.47;5029852;27;114437;-72
2022/08/05 00:21:51;;;;;;;4.23;3.10;;;30.60;46.50;;;30.85;33.36;98174.47;5028666;27;124432;-72
2022/08/05 00:24:18;;;;;;;4.10;2.70;;;30.60;46.60;;;30.77;34.03;98165.34;5038508;27;123908;-72
2022/08/05 00:26:44;;;;;;;4.17;3.23;;;30.50;46.70;;;30.67;34.04;98172.25;5046581;27;114339;-72
2022/08/05 00:29:11;;;;;;;5.47;3.80;;;30.40;46.80;;;30.58;33.91;98164.44;5042101;27;113047;-72
2022/08/05 00:31:37;;;;;;;3.73;3.10;;;30.40;47.10;;;30.57;34.59;98167.72;5026303;27;124010;-72
2022/08/05 00:34:04;;;;;;;3.80;3.23;;;30.30;47.30;;;30.55;34.86;98170.28;5029332;27;123451;-72
2022/08/05 00:36:31;;;;;;;5.33;2.97;;;30.20;47.50;;;30.55;34.85;98170.28;5039444;27;115227;-72
2022/08/05 00:38:57;;;;;;;3.47;3.03;;;30.20;47.60;;;30.55;34.60;98173.13;5035535;27;115000;-72
2022/08/05 00:41:29;;;;;;;4.53;3.30;;;30.20;47.80;;;30.53;34.94;98178.50;5034781;27;124049;-72
2022/08/05 00:43:56;;;;;;;5.70;3.80;;;30.20;48.00;;;30.53;34.59;98178.50;5023396;27;122911;-72
2022/08/05 00:46:23;;;;;;;6.33;3.20;;;30.20;48.10;;;30.52;35.03;98194.81;5042977;27;114180;-72
2022/08/05 00:48:51;;;;;;;3.53;3.20;;;30.10;48.10;;;30.50;34.85;98199.38;5044955;27;114113;-72
2022/08/05 00:51:19;;;;;;;3.77;2.97;;;30.10;48.20;;;30.49;35.15;98207.09;5042048;27;124321;-72
2022/08/05 00:53:46;;;;;;;4.07;2.97;;;30.10;48.40;;;30.48;35.13;98216.16;5042429;27;124696;-72
2022/08/05 00:56:16;;;;;;;4.07;3.57;;;30.10;48.50;;;30.45;34.87;98220.72;5031280;27;114865;-72
2022/08/05 00:58:43;;;;;;;4.97;3.10;;;30.10;48.60;;;30.37;33.05;98217.31;5033400;27;114896;-71
2022/08/05 01:01:11;;;;;;;3.90;2.67;;;30.00;46.80;;;30.27;31.67;98224.19;5035518;27;123904;-71
2022/08/05 01:03:38;;;;;;;4.37;2.73;;;29.80;44.60;;;30.20;31.29;98230.13;5030207;27;125533;-71
2022/08/05 01:06:06;;;;;;;3.43;2.97;;;29.80;44.30;;;30.11;31.41;98227.94;5030854;27;114327;-71
2022/08/05 01:08:33;;;;;;;7.30;2.23;;;29.70;43.70;;;30.04;30.84;98236.75;5033341;27;113960;-71
2022/08/05 01:11:17;;;;;;;3.30;2.13;;;29.60;43.00;;;29.94;30.55;98240.75;5027237;27;124250;-71
2022/08/05 01:13:59;;;;;;;3.90;2.40;;;29.60;43.00;;;29.84;31.11;98231.28;5033658;27;123834;-71
2022/08/05 01:16:50;;;;;;;3.50;2.33;;;29.40;43.30;;;29.71;31.61;98244.75;5031922;27;114265;-71
2022/08/05 01:19:32;;;;;;;5.40;2.57;;;29.40;43.90;;;29.60;32.23;98244.25;5027073;27;114006;-71
2022/08/05 01:22:01;;;;;;;3.63;2.30;;;29.20;44.60;;;29.53;32.59;98239.59;5026358;27;124085;-71
2022/08/05 01:24:43;;;;;;;4.20;2.20;;;29.10;44.90;;;29.49;32.75;98256.78;5039864;27;123310;-71
2022/08/05 01:28:02;;;;;;;8.63;2.87;;;29.10;45.30;;;29.39;33.37;98263.63;5028521;27;117100;-72
2022/08/05 01:30:33;;;;;;;4.73;2.73;;;29.10;46.10;;;29.31;33.66;98261.41;5038425;27;114919;-72
2022/08/05 01:33:07;;;;;;;3.83;2.50;;;28.90;46.70;;;29.23;34.11;98260.84;5034195;27;124081;-72
2022/08/05 01:35:38;;;;;;;3.60;2.33;;;28.90;46.90;;;29.20;34.32;98273.13;5029066;27;123283;-72
2022/08/05 01:38:07;;;;;;;5.17;2.67;;;28.80;47.20;;;29.18;34.45;98273.59;5029446;27;113695;-72
2022/08/05 01:40:34;;;;;;;3.97;2.47;;;28.80;47.70;;;29.17;34.60;98271.19;5029600;27;113213;-72
2022/08/05 01:43:02;;;;;;;6.80;2.60;;;28.80;47.90;;;29.04;35.76;98285.38;5042999;27;123457;-71
2022/08/05 01:45:30;;;;;;;4.20;2.87;;;28.70;48.80;;;28.96;35.43;98286.78;5043293;27;123733;-71
2022/08/05 01:47:59;;;;;;;7.07;2.20;;;28.60;48.80;;;28.89;36.10;98292.69;5034391;27;114032;-72
2022/08/05 01:50:37;;;;;;;5.33;2.37;;;28.50;49.50;;;28.85;36.16;98287.09;5028991;27;113538;-71
2022/08/05 01:53:11;;;;;;;3.20;2.13;;;28.50;49.50;;;28.88;35.99;98303.25;5026950;27;124225;-72
2022/08/05 01:55:39;;;;;;;7.53;2.20;;;28.50;49.50;;;28.91;36.28;98296.69;5039223;27;123719;-72
2022/08/05 01:58:10;;;;;;;2.33;2.00;;;28.50;49.70;;;28.93;36.19;98294.16;5037318;27;114070;-72
2022/08/05 02:00:43;;;;;;;4.30;2.70;;;28.50;49.70;;;28.96;36.33;98301.81;5029722;27;114097;-71
2022/08/05 02:03:32;;;;;;;4.23;2.77;;;28.50;49.90;;;28.96;36.25;98298.16;5030303;27;125000;-71
2022/08/05 02:06:01;;;;;;;6.73;2.37;;;28.50;50.10;;;28.94;36.59;98289.31;5033168;27;123943;-72
2022/08/05 02:08:28;;;;;;;3.50;2.40;;;28.50;50.50;;;28.94;36.58;98292.16;5035319;27;114734;-72
2022/08/05 02:11:05;;;;;;;3.40;2.03;;;28.40;50.40;;;28.96;36.53;98293.28;5034659;27;113714;-72
2022/08/05 02:13:43;;;;;;;4.03;2.50;;;28.50;50.50;;;29.00;36.44;98296.81;5033079;27;124141;-72
2022/08/05 02:16:33;;;;;;;3.00;1.90;;;28.50;50.50;;;29.01;36.56;98294.78;5050297;27;123614;-72
2022/08/05 02:19:21;;;;;;;6.40;2.10;;;28.60;50.50;;;29.06;36.59;98292.19;5032942;27;115522;-72
2022/08/05 02:21:56;;;;;;;3.53;2.07;;;28.60;50.60;;;29.10;36.52;98294.13;5030386;27;114705;-71
2022/08/05 02:24:32;;;;;;;4.63;2.37;;;28.60;50.60;;;29.12;36.62;98295.28;5030425;28;122972;-71
2022/08/05 02:27:02;;;;;;;7.23;2.20;;;28.60;50.50;;;29.13;36.71;98313.19;5030545;27;124591;-73
2022/08/05 02:29:32;;;;;;;2.30;2.10;;;28.70;50.60;;;29.15;36.47;98304.97;5039726;27;113881;-71
2022/08/05 02:32:00;;;;;;;3.90;2.00;;;28.70;50.60;;;29.14;36.65;98295.63;5018058;27;113683;-70
2022/08/05 02:34:30;;;;;;;6.13;2.37;;;28.70;50.70;;;29.14;36.86;98297.69;5028752;27;124254;-71
2022/08/05 02:37:02;;;;;;;8.13;2.53;;;28.70;50.80;;;29.12;36.86;98305.88;5028752;27;123698;-70
2022/08/05 02:39:34;;;;;;;4.07;1.90;;;28.70;50.90;;;29.11;36.75;98302.25;5030357;27;114344;-71
2022/08/05 02:42:03;;;;;;;4.40;1.93;;;28.70;50.90;;;29.11;37.01;98305.09;5037355;27;113824;-71
2022/08/05 02:44:35;;;;;;;8.60;2.13;;;28.70;51.00;;;29.12;37.03;98300.97;5036137;27;123408;-71
2022/08/05 02:47:05;;;;;;;3.93;2.40;;;28.70;51.20;;;29.12;37.03;98311.56;5032733;27;124335;-71
2022/08/05 02:49:40;;;;;;;4.40;2.20;;;28.70;51.20;;;29.12;36.91;98308.72;5038826;27;114634;-72
2022/08/05 02:52:14;;;;;;;5.17;2.17;;;29.50;51.80;;;29.10;37.04;98309.19;5030157;27;113992;-71
2022/08/05 02:54:42;;;;;;;4.93;2.20;;;28.70;51.30;;;29.10;37.05;98308.38;5029277;27;124374;-71
2022/08/05 02:57:17;;;;;;;3.57;2.50;;;28.60;51.30;;;29.08;37.07;98306.00;5015247;27;123852;-71
2022/08/05 02:59:49;;;;;;;3.50;1.90;;;28.60;51.40;;;29.06;37.33;98300.72;5035703;27;114055;-71
2022/08/05 03:02:19;;;;;;;3.30;2.40;;;28.60;51.60;;;29.05;37.13;98301.19;5031407;27;114708;-71
2022/08/05 03:04:49;;;;;;;3.93;2.40;;;28.60;51.60;;;29.04;37.69;98311.78;5028358;27;124453;-71
2022/08/05 03:07:18;;;;;;;8.40;2.83;;;28.60;51.80;;;29.01;37.51;98315.47;5040034;27;123691;-71
2022/08/05 03:09:45;;;;;;;4.60;2.40;;;28.60;51.90;;;28.99;37.49;98314.31;5026896;27;115127;-71
2022/08/05 03:12:33;;;;;;;2.93;2.63;;;28.50;51.80;;;28.95;37.70;98328.66;5042124;27;114989;-72
2022/08/05 03:15:00;;;;;;;3.00;2.30;;;28.60;52.80;;;28.91;37.67;98338.53;5035208;27;124001;-72
2022/08/05 03:17:27;;;;;;;6.30;2.20;;;28.50;52.10;;;28.83;37.89;98341.59;5035049;27;123663;-71
2022/08/05 03:19:54;;;;;;;4.40;2.83;;;28.40;52.20;;;28.75;38.08;98334.50;5027784;27;114143;-72
2022/08/05 03:22:20;;;;;;;8.10;2.57;;;28.40;52.30;;;28.67;38.17;98338.78;5031426;27;113409;-72
2022/08/05 03:24:48;;;;;;;8.30;2.50;;;28.30;52.40;;;28.65;38.21;98346.94;5028927;27;124528;-72
2022/08/05 03:27:15;;;;;;;4.90;2.80;;;28.30;52.70;;;28.62;38.25;98342.94;5028520;27;124472;-72
2022/08/05 03:29:42;;;;;;;6.37;2.70;;;28.30;52.80;;;28.57;38.37;98340.63;5027765;27;114307;-72
2022/08/05 03:32:09;;;;;;;4.83;2.50;;;28.20;53.50;;;28.53;38.59;98351.31;5036544;27;113993;-72
2022/08/05 03:34:36;;;;;;;11.43;2.40;;;28.10;53.00;;;28.46;39.01;98345.81;5029742;27;124108;-72
2022/08/05 03:37:04;;;;;;;5.50;2.43;;;28.10;53.10;;;28.41;38.56;98346.31;5033875;27;123524;-71
2022/08/05 03:39:31;;;;;;;7.00;2.60;;;28.00;53.30;;;28.38;38.81;98345.16;5028229;27;114062;-72
2022/08/05 03:41:58;;;;;;;3.13;2.40;;;28.00;53.40;;;28.38;39.12;98344.34;5037532;27;114057;-72
2022/08/05 03:44:25;;;;;;;7.80;3.00;;;28.00;53.60;;;28.37;39.08;98343.56;5036916;27;124129;-71
2022/08/05 03:46:51;;;;;;;7.10;2.40;;;28.00;53.70;;;28.36;39.16;98341.16;5027116;27;123853;-71
2022/08/05 03:49:18;;;;;;;9.23;2.60;;;28.00;53.80;;;28.34;39.22;98337.94;5032461;27;114092;-72
2022/08/05 03:52:00;;;;;;;4.70;2.60;;;28.00;54.00;;;28.31;39.21;98330.31;5032335;27;113981;-73
2022/08/05 03:54:39;;;;;;;5.83;2.40;;;27.90;54.10;;;28.28;39.04;98326.31;5028662;27;124111;-72
2022/08/05 03:57:11;;;;;;;5.47;2.20;;;27.90;54.80;;;28.29;39.36;98312.91;5027539;27;123099;-72
2022/08/05 03:59:43;;;;;;;4.70;2.40;;;27.90;54.40;;;28.28;39.57;98312.09;5028065;27;115453;-72
2022/08/05 04:02:11;;;;;;;6.50;2.90;;;27.90;54.60;;;28.29;39.72;98312.91;5043738;27;114155;-72
2022/08/05 04:04:39;;;;;;;4.70;2.67;;;27.90;54.60;;;28.31;39.68;98319.75;5029634;27;124443;-72
2022/08/05 04:07:07;;;;;;;4.73;2.63;;;27.90;54.80;;;28.29;39.70;98319.41;5030991;27;123598;-72
2022/08/05 04:09:34;;;;;;;3.53;2.33;;;27.90;54.80;;;28.29;39.53;98318.59;5027866;27;115135;-72
2022/08/05 04:12:02;;;;;;;2.90;2.30;;;27.80;54.80;;;28.26;39.91;98325.16;5028410;27;114929;-72
2022/08/05 04:14:29;;;;;;;3.13;2.47;;;27.80;54.90;;;28.25;39.87;98326.41;5038405;27;126044;-72
2022/08/05 04:16:58;;;;;;;5.67;2.80;;;27.80;55.00;;;28.22;39.92;98336.63;5047662;27;123903;-72
2022/08/05 04:19:26;;;;;;;4.37;2.47;;;27.80;55.00;;;28.17;39.90;98340.78;5027662;27;114428;-72
2022/08/05 04:21:53;;;;;;;5.60;2.77;;;27.80;55.10;;;28.14;40.12;98338.84;5035433;27;113672;-72
2022/08/05 04:24:20;;;;;;;5.73;2.70;;;27.80;55.30;;;28.13;40.20;98345.78;5027658;27;124937;-72
2022/08/05 04:26:46;;;;;;;2.97;2.40;;;27.70;55.40;;;28.13;40.26;98344.94;5032418;27;123093;-72
2022/08/05 04:29:13;;;;;;;4.47;2.20;;;27.70;55.50;;;28.14;40.00;98370.09;5040912;27;114222;-71
2022/08/05 04:31:39;;;;;;;5.00;2.90;;;27.70;55.60;;;28.10;40.57;98402.66;5023827;27;112469;-71
2022/08/05 04:34:06;;;;;;;4.33;2.60;;;27.70;56.70;;;28.05;40.57;98406.00;5046581;27;123494;-71
2022/08/05 04:36:33;;;;;;;6.17;2.70;;;27.60;56.00;;;28.00;40.72;98415.88;5028613;27;123816;-71
2022/08/05 04:38:59;;;;;;;4.10;2.73;;;27.60;56.10;;;27.98;40.79;98424.81;5028729;27;114698;-72
2022/08/05 04:41:26;;;;;;;3.30;2.40;;;27.60;56.30;;;27.97;40.81;98428.09;5014926;27;113030;-72
2022/08/05 04:43:52;;;;;;;5.70;2.70;;;27.50;56.30;;;27.96;40.84;98443.53;5028560;27;124111;-72
2022/08/05 04:46:19;;;;;;;8.23;2.73;;;27.50;56.50;;;27.95;41.02;98456.13;5040958;27;123852;-72
2022/08/05 04:48:45;;;;;;;6.23;2.63;;;27.50;56.60;;;27.93;41.17;98455.78;5032271;27;115263;-72
2022/08/05 04:51:11;;;;;;;4.40;2.93;;;27.50;56.90;;;27.89;41.17;98466.41;5031547;27;114779;-72
2022/08/05 04:53:39;;;;;;;4.07;2.87;;;27.40;57.00;;;27.85;41.17;98477.03;5035265;27;124034;-72
2022/08/05 04:56:08;;;;;;;5.67;2.60;;;27.40;57.10;;;27.81;41.31;98470.63;5027584;27;124656;-72
2022/08/05 04:58:35;;;;;;;6.17;2.73;;;27.40;57.20;;;27.75;41.32;98456.09;5041181;27;113428;-71
2022/08/05 05:01:02;;;;;;;4.13;2.90;;;27.30;57.20;;;27.67;41.83;98466.00;5034168;27;115107;-72
2022/08/05 05:03:28;;;;;;;10.90;3.00;;;27.30;57.50;;;27.60;41.84;98500.22;5039777;27;124388;-72
2022/08/05 05:05:55;;;;;;;4.60;3.03;;;27.20;57.70;;;27.55;41.92;98527.06;5044801;27;123413;-72
2022/08/05 05:08:21;;;;;;;5.50;3.00;;;27.10;57.90;;;27.46;42.12;98536.16;5026688;27;114364;-71
2022/08/05 05:10:48;;;;;;;4.63;2.80;;;27.00;58.40;;;27.36;42.70;98537.13;5030369;27;114483;-72
2022/08/05 05:13:17;;;;;;;4.20;2.87;;;27.00;58.60;;;27.29;42.81;98548.59;5036483;27;123986;-72
2022/08/05 05:15:44;;;;;;;5.20;2.93;;;26.90;58.70;;;27.22;43.00;98535.34;5025598;27;123915;-72
2022/08/05 05:18:15;;;;;;;4.87;3.10;;;26.90;58.90;;;27.22;42.65;98541.03;5030123;27;113440;-72
2022/08/05 05:20:43;;;;;;;6.20;3.07;;;26.90;59.00;;;27.25;42.78;98542.22;5027417;27;114025;-72
2022/08/05 05:23:11;;;;;;;3.47;2.83;;;26.80;59.00;;;27.31;42.54;98560.34;5039151;27;124010;-72
2022/08/05 05:25:41;;;;;;;4.27;2.83;;;26.90;59.20;;;27.36;42.52;98547.69;5030785;27;122951;-70
2022/08/05 05:28:09;;;;;;;6.73;3.20;;;26.90;59.30;;;27.40;42.48;98548.41;5039328;27;114149;-70
2022/08/05 05:30:37;;;;;;;4.80;2.97;;;26.90;59.40;;;27.40;43.38;98551.25;5039443;27;113346;-72
2022/08/05 05:33:06;;;;;;;4.70;3.20;;;26.90;59.90;;;27.43;43.07;98554.06;5035438;27;124094;-72
2022/08/05 05:35:33;;;;;;;5.83;3.00;;;26.90;59.80;;;27.45;43.04;98559.28;5041536;27;123748;-72
2022/08/05 05:38:02;;;;;;;5.00;2.67;;;26.90;59.80;;;27.50;42.60;98558.78;5046786;27;116341;-71
2022/08/05 05:40:29;;;;;;;3.67;2.90;;;26.90;59.70;;;27.57;42.87;98561.50;5050129;27;114751;-71
2022/08/05 05:42:56;;;;;;;4.03;2.60;;;27.00;59.80;;;27.63;42.69;98576.78;5038953;27;124249;-71
2022/08/05 05:45:23;;;;;;;6.67;2.60;;;27.10;59.80;;;27.71;42.72;98575.41;5041349;27;123859;-72
2022/08/05 05:47:49;;;;;;;7.10;2.80;;;27.10;59.80;;;27.79;42.61;98575.28;5040090;27;115675;-72
2022/08/05 05:50:18;;;;;;;8.27;3.20;;;27.20;59.90;;;27.80;42.57;98580.56;5044002;27;114227;-72
2022/08/05 05:52:46;;;;;;;6.50;3.00;;;27.20;60.00;;;27.81;42.57;98585.00;5039879;27;124169;-72
2022/08/05 05:55:16;;;;;;;8.03;3.77;;;27.20;60.00;;;27.84;42.64;98595.50;5026236;27;123819;-72
2022/08/05 05:57:45;;;;;;;5.13;3.27;;;27.30;60.30;;;27.87;42.97;98593.84;5041574;27;114563;-73
2022/08/05 06:00:16;;;;;;;6.57;3.00;;;27.30;60.20;;;27.89;43.04;98608.41;5037316;27;113868;-73
2022/08/05 06:02:43;;;;;;;9.73;3.87;;;27.30;60.20;;;27.91;42.36;98608.75;5039609;27;122926;-72
2022/08/05 06:05:13;;;;;;;6.70;3.60;;;27.40;60.40;;;27.93;42.44;98604.25;5041309;27;123018;-73
2022/08/05 06:07:40;;;;;;;8.03;3.10;;;27.40;60.50;;;27.97;42.31;98604.19;5036728;27;113690;-71
2022/08/05 06:10:09;;;;;;;9.63;3.40;;;27.40;60.20;;;27.99;42.64;98615.91;5040103;27;113797;-72
2022/08/05 06:12:36;;;;;;;7.93;3.23;;;27.40;60.20;;;27.98;42.63;98617.16;5039260;27;124232;-72
2022/08/05 06:15:06;;;;;;;3.63;3.07;;;27.40;60.30;;;27.96;42.44;98611.09;5036709;27;123920;-73
2022/08/05 06:17:32;;;;;;;9.77;3.53;;;27.40;60.20;;;27.95;42.65;98595.28;5040980;27;114383;-74
2022/08/05 06:19:59;;;;;;;3.20;2.90;;;27.40;60.10;;;27.94;42.45;98593.69;5040595;27;114163;-73
2022/08/05 06:22:34;;;;;;;9.80;3.00;;;27.40;60.10;;;27.99;42.25;98590.34;5035118;27;124354;-74
2022/08/05 06:25:06;;;;;;;6.47;3.40;;;27.40;60.20;;;28.08;42.31;98592.63;5039771;27;124285;-73
2022/08/05 06:27:33;;;;;;;4.83;3.40;;;27.50;60.20;;;28.16;41.88;98603.41;5040787;27;115586;-74
2022/08/05 06:30:00;;;;;;;3.97;2.70;;;27.50;60.00;;;28.24;41.78;98589.84;5040323;27;114968;-74
2022/08/05 06:32:28;;;;;;;4.30;3.10;;;27.60;59.70;;;28.28;41.71;98590.56;5027969;27;123057;-74
2022/08/05 06:34:57;;;;;;;5.13;2.20;;;27.60;59.60;;;28.31;41.44;98592.53;5033270;27;123802;-72
2022/08/05 06:37:27;;;;;;;4.07;2.80;;;27.10;58.90;;;28.33;41.09;98594.94;5039250;27;114022;-72
2022/08/05 06:39:53;;;;;;;4.60;3.03;;;27.70;59.00;;;28.35;41.20;98592.47;5038433;27;112899;-73
2022/08/05 06:42:20;;;;;;;10.80;3.33;;;27.70;59.00;;;28.41;40.88;98587.88;5030621;27;124496;-73
2022/08/05 06:44:47;;;;;;;3.73;2.63;;;27.80;59.00;;;28.50;40.79;98585.25;5045775;27;123435;-73
2022/08/05 06:47:13;;;;;;;4.97;2.97;;;27.80;58.80;;;28.54;40.64;98586.00;5037738;27;114520;-72
2022/08/05 06:49:40;;;;;;;5.23;3.00;;;27.90;58.80;;;28.60;40.69;98583.44;5046208;27;113405;-72
2022/08/05 06:52:06;;;;;;;8.10;2.87;;;27.90;58.40;;;28.63;40.27;98586.19;5039463;27;124229;-73
2022/08/05 06:54:33;;;;;;;5.43;2.80;;;28.00;58.40;;;28.69;40.09;98589.31;5048109;27;123257;-72
2022/08/05 06:56:59;;;;;;;2.80;2.50;;;27.30;57.70;;;28.77;40.29;98587.91;5041815;27;114529;-73
2022/08/05 06:59:26;;;;;;;4.30;2.83;;;28.10;58.10;;;28.84;39.92;98598.31;5048749;27;114015;-73
2022/08/05 07:01:52;;;;;;;4.73;3.30;;;28.20;57.90;;;28.88;39.68;98599.03;5044874;27;124196;-72
2022/08/05 07:04:19;;;;;;;8.47;2.37;;;28.20;57.60;;;28.88;39.53;98601.88;5039558;27;124496;-73
2022/08/05 07:06:45;;;;;;;5.07;2.90;;;28.20;57.30;;;28.87;39.69;98614.50;5043952;27;113634;-72
2022/08/05 07:09:13;;;;;;;5.73;3.00;;;28.30;57.30;;;28.87;39.33;98619.41;5049269;27;96839;-73
2022/08/05 07:11:39;;;;;;;6.90;2.80;;;28.30;57.20;;;28.88;39.69;98621.00;5022330;27;123721;-72
2022/08/05 07:16:58;;;;;;;5.93;3.10;;;28.30;57.20;;;28.94;39.68;98631.41;5044236;27;115719;-72
2022/08/05 07:19:25;;;;;;;6.50;2.53;;;28.30;57.10;;;28.98;39.41;98628.47;5041551;27;115215;-72
2022/08/05 07:21:52;;;;;;;5.20;2.70;;;28.30;57.00;;;29.03;39.48;98636.50;5049598;27;124066;-73
2022/08/05 07:24:18;;;;;;;4.70;3.00;;;28.40;57.00;;;29.02;39.53;98637.75;5037877;27;123955;-71
2022/08/05 07:26:46;;;;;;;6.03;3.00;;;28.40;57.00;;;29.02;39.29;98632.84;5049659;27;114075;-72
2022/08/05 07:29:13;;;;;;;5.00;3.03;;;28.40;57.00;;;29.08;39.44;98643.75;5036984;27;113836;-73
2022/08/05 07:31:40;;;;;;;7.80;2.97;;;28.40;57.00;;;29.11;39.29;98637.16;5032254;27;123975;-72
2022/08/05 07:34:07;;;;;;;4.60;2.33;;;28.50;56.90;;;29.17;39.19;98646.78;5047915;27;122960;-73
2022/08/05 07:36:34;;;;;;;5.70;2.70;;;28.50;56.70;;;29.19;38.47;98650.78;5045157;27;114560;-75
2022/08/05 07:39:05;;;;;;;3.50;2.60;;;28.50;56.30;;;29.20;38.73;98648.72;5045679;27;115441;-72
2022/08/05 07:41:32;;;;;;;3.47;2.40;;;28.50;56.10;;;29.20;38.47;98643.84;5040340;27;124017;-72
2022/08/05 07:43:59;;;;;;;4.40;3.27;;;28.50;55.90;;;29.21;38.35;98650.34;5043012;27;123889;-75
2022/08/05 07:46:29;;;;;;;4.53;2.80;;;28.50;55.80;;;29.24;38.06;98650.25;5043023;27;114379;-71
2022/08/05 07:48:58;;;;;;;3.77;2.47;;;28.60;55.50;;;29.26;38.07;98641.28;5032771;27;113907;-71
2022/08/05 07:51:25;;;;;;;4.50;3.07;;;28.60;55.30;;;29.32;38.15;98645.19;5035788;27;124167;-73
2022/08/05 07:53:51;;;;;;;4.53;2.40;;;28.70;55.30;;;29.35;38.13;98627.22;5036432;27;123967;-72
2022/08/05 07:56:18;;;;;;;4.50;2.80;;;28.70;55.30;;;29.43;38.07;98630.69;5035691;27;114502;-74
2022/08/05 07:58:45;;;;;;;3.30;2.30;;;28.70;55.50;;;29.48;38.17;98642.34;5037257;27;113308;-72
2022/08/05 08:01:11;;;;;;;4.10;2.47;;;28.80;55.50;;;29.52;37.19;98630.88;5038179;27;124105;-72
2022/08/05 08:03:38;;;;;;;8.97;2.80;;;28.80;54.80;;;29.60;37.20;98637.19;5036223;27;123987;-74
2022/08/05 08:06:04;;;;;;;2.80;2.40;;;28.90;54.70;;;29.69;37.03;98643.09;5047194;27;115144;-74
2022/08/05 08:08:31;;;;;;;3.80;1.90;;;28.90;54.30;;;29.76;35.73;98664.88;5041131;27;114889;-73
2022/08/05 08:10:59;;;;;;;2.63;2.40;;;29.10;52.90;;;29.76;35.30;98644.94;5040962;27;124290;-74
2022/08/05 08:13:25;;;;;;;4.23;1.90;;;29.10;52.60;;;29.78;34.67;98653.84;5044929;27;124426;-74
2022/08/05 08:15:52;;;;;;;3.03;2.47;;;29.10;51.10;;;29.77;34.57;98646.53;5042795;27;114427;-73
2022/08/05 08:18:21;;;;;;;2.63;1.90;;;29.10;50.80;;;29.77;33.92;98652.22;5045142;27;113286;-75
2022/08/05 08:20:50;;;;;;;4.53;2.20;;;29.10;49.80;;;29.73;33.39;98641.75;5047029;27;124494;-71
2022/08/05 08:23:17;;;;;;;3.00;2.17;;;29.10;49.30;;;29.72;33.79;98640.16;5031991;27;123031;-72
2022/08/05 08:25:45;;;;;;;2.77;2.00;;;29.10;49.40;;;29.78;33.94;98640.41;5046927;27;112670;-72
2022/08/05 08:28:12;;;;;;;2.10;1.90;;;29.20;49.60;;;29.87;33.71;98639.75;5032176;27;114476;-74
2022/08/05 08:30:38;;;;;;;3.77;2.10;;;29.20;49.50;;;29.89;33.38;98631.56;5034916;27;124140;-74
2022/08/05 08:33:12;;;;;;;2.70;1.67;;;29.30;49.30;;;29.89;33.67;98623.03;5030480;27;123191;-73
2022/08/05 08:35:38;;;;;;;2.10;1.80;;;29.30;49.20;;;29.88;33.65;98625.09;5030728;27;114531;-73
2022/08/05 08:38:05;;;;;;;2.30;1.90;;;29.30;49.30;;;29.93;34.19;98618.06;5045982;27;114280;-71
2022/08/05 08:40:34;;;;;;;1.77;1.67;;;29.30;49.50;;;30.00;33.39;98622.75;5051260;27;125309;-72
2022/08/05 08:43:02;;;;;;;2.70;1.80;;;29.40;49.40;;;30.05;33.70;98605.09;5033107;27;124076;-72
2022/08/05 08:45:30;;;;;;;2.57;2.00;;;29.40;49.30;;;30.09;33.21;98605.78;5032627;27;114618;-72
2022/08/05 08:48:01;;;;;;;4.37;2.00;;;29.50;49.20;;;30.12;32.84;98602.06;5039019;27;114042;-72
2022/08/05 08:50:29;;;;;;;3.17;1.80;;;29.50;48.50;;;30.15;32.67;98598.31;5041971;27;124079;-72
2022/08/05 08:53:04;;;;;;;3.30;1.77;;;29.60;48.30;;;30.17;32.56;98590.91;5041155;27;124639;-73
2022/08/05 08:55:33;;;;;;;2.47;2.10;;;30.00;48.40;;;30.17;32.68;98584.38;5028961;27;114397;-74
2022/08/05 08:58:00;;;;;;;2.87;1.80;;;29.60;48.00;;;30.21;32.73;98593.66;5033869;27;116019;-73
2022/08/05 09:00:27;;;;;;;2.00;1.80;;;29.60;48.30;;;30.27;33.23;98589.00;5027305;27;124276;-75
2022/08/05 09:02:56;;;;;;;2.37;1.97;;;29.70;48.30;;;30.32;32.49;98585.59;5027135;27;123550;-72
2022/08/05 09:05:23;;;;;;;2.77;2.23;;;29.70;48.00;;;30.38;32.53;98594.41;5029576;27;115008;-73
2022/08/05 09:07:53;;;;;;;2.03;1.70;;;29.70;48.00;;;30.43;32.59;98584.50;5026047;27;113917;-74
2022/08/05 09:10:21;;;;;;;3.27;2.17;;;29.80;47.90;;;30.48;32.61;98587.59;5047229;27;124451;-72
2022/08/05 09:12:48;;;;;;;2.80;1.90;;;29.90;47.60;;;30.51;31.63;98580.19;5043266;27;123484;-73
2022/08/05 09:15:14;;;;;;;2.10;1.77;;;29.90;46.80;;;30.51;32.04;98571.63;5042699;27;114138;-75
2022/08/05 09:17:41;;;;;;;1.90;1.67;;;29.90;47.10;;;30.57;31.44;98555.53;5043551;27;113097;-75
2022/08/05 09:20:10;;;;;;;2.90;1.70;;;30.00;46.80;;;30.59;31.39;98558.75;5043883;27;123292;-75
2022/08/05 09:23:02;;;;;;;2.47;2.00;;;30.00;46.60;;;30.64;31.41;98560.25;5041277;27;123743;-72
2022/08/05 09:25:28;;;;;;;4.87;1.80;;;30.10;46.60;;;30.68;31.16;98550.34;5041757;27;114554;-72
2022/08/05 09:27:55;;;;;;;3.13;2.07;;;30.10;46.40;;;30.69;31.68;98563.34;5045961;27;113962;-73
2022/08/05 09:30:21;;;;;;;1.93;1.73;;;30.10;46.20;;;30.73;31.22;98552.59;5045257;27;123298;-73
2022/08/05 09:32:48;;;;;;;1.60;1.50;;;30.10;46.10;;;30.76;30.86;98554.56;5030404;27;123926;-73
2022/08/05 09:35:16;;;;;;;2.10;1.90;;;30.20;45.70;;;30.79;31.04;98550.78;5034120;27;114094;-73
2022/08/05 09:37:51;;;;;;;1.93;1.80;;;30.20;45.60;;;30.79;31.03;98552.84;5042974;27;114717;-72
2022/08/05 09:40:39;;;;;;;2.70;2.07;;;30.20;45.40;;;30.79;30.81;98545.09;5042346;27;123636;-73
2022/08/05 09:43:09;;;;;;;2.50;1.70;;;30.30;45.40;;;30.80;30.68;98535.28;5039467;27;123693;-73
2022/08/05 09:45:40;;;;;;;2.50;1.83;;;30.30;45.40;;;30.86;30.45;98543.28;5041257;27;115238;-73
2022/08/05 09:48:25;;;;;;;2.67;2.00;;;30.30;45.20;;;30.91;31.06;98539.84;5038920;27;115158;-72
2022/08/05 09:50:56;;;;;;;1.80;1.50;;;30.30;45.20;;;30.95;30.95;98529.13;5029635;27;123528;-72
2022/08/05 09:53:24;;;;;;;1.93;1.70;;;30.40;45.20;;;30.98;31.00;98533.94;5037879;27;124102;-73
2022/08/05 09:55:55;;;;;;;2.17;1.77;;;30.40;45.20;;;31.01;31.24;98541.56;5025858;27;113202;-73
2022/08/05 09:58:22;;;;;;;3.10;1.73;;;30.40;45.00;;;31.04;30.29;98534.94;5034130;27;114046;-74
2022/08/05 10:00:59;;;;;;;2.20;1.83;;;30.50;44.90;;;31.08;30.29;98531.97;5037515;27;124028;-73
2022/08/05 10:03:28;;;;;;;3.00;2.30;;;30.60;44.80;;;31.07;29.94;98538.94;5043594;27;124380;-72
2022/08/05 10:06:09;;;;;;;3.33;1.80;;;30.50;44.20;;;31.05;30.05;98533.69;5042387;27;114373;-72
2022/08/05 10:08:37;;;;;;;2.97;1.73;;;30.60;44.50;;;31.11;30.50;98539.59;5047132;27;114161;-72
2022/08/05 10:11:24;;;;;;;2.57;1.87;;;30.50;44.40;;;31.13;30.51;98546.44;5036942;27;123583;-73
2022/08/05 10:13:51;;;;;;;4.20;2.40;;;30.60;44.30;;;31.10;29.80;98530.25;5043983;27;123098;-73
2022/08/05 10:16:34;;;;;;;2.10;1.90;;;30.60;44.00;;;31.09;29.90;98539.28;5046955;27;114870;-73
2022/08/05 10:19:02;;;;;;;3.23;2.13;;;30.60;44.20;;;31.13;29.96;98535.03;5043359;27;114471;-74
2022/08/05 10:21:28;;;;;;;12.10;2.23;;;30.60;44.20;;;31.16;29.68;98522.69;5022127;27;122211;-73
2022/08/05 10:23:55;;;;;;;3.13;2.03;;;30.60;44.60;;;31.19;29.59;98520.97;5024670;27;123745;-73
2022/08/05 10:26:22;;;;;;;2.07;1.80;;;30.60;43.70;;;31.22;29.92;98520.09;5036392;27;114313;-72